Ida — C4CZ2 — position and weather

sailwx.info

Track history (hours):
 
Tides and Currents Weather Stations Pressure Air Temp Water Temp Dewpoint Dewpoint Depression Visibility Wind Speed Wind Dir Waves Ship Positions

Ida

Last reported at 2015-May-23 13:32 UTC. Time now 2015-May-25 17:21 UTC.
Position N 55°08' E 012°44'.

Length 82 m; draft 3.8 m.

Type: Cargo ship. MMSI: 210319000.

Date/timePositionNaut miles runAvg speedWind from/ knotsBaromVisibWave heightAir tempDewpointWater temp
2015-May-23 13:32N 55°08' E 012°44'6 6.3
2015-May-23 12:33N 55°14' E 012°38'7 6.6
2015-May-23 11:33N 55°20' E 012°39'7 6.6
2015-May-23 10:33N 55°27' E 012°40'8 7.9
2015-May-23 09:33N 55°34' E 012°42'1110.7
2015-May-23 08:33N 55°45' E 012°41'10 9.7
2015-May-23 07:33N 55°55' E 012°38'9 9.2
2015-May-23 06:33N 56°04' E 012°37'10 9.8
2015-May-23 05:33N 56°10' E 012°23'9 8.7
2015-May-23 04:33N 56°11' E 012°07'61 8.6
2015-May-22 21:33N 56°09' E 010°18'3 0.9
2015-May-22 18:14N 56°09' E 010°13'0 0.0
2015-May-22 17:26N 56°09' E 010°13'0 0.0
2015-May-22 13:20N 56°09' E 010°13'0 0.0
2015-May-22 11:23N 56°09' E 010°13'0 0.0
2015-May-22 07:29N 56°09' E 010°13'0 0.0
2015-May-22 06:26N 56°09' E 010°13'0 0.0
2015-May-22 05:32N 56°09' E 010°13'0 0.0
2015-May-20 23:33N 56°09' E 010°13'4 4.5
2015-May-20 22:33N 56°08' E 010°21'63 6.1
2015-May-20 12:15N 56°58' E 011°29'15 8.7
2015-May-20 10:33N 57°12' E 011°34'9 9.3
2015-May-20 09:33N 57°22' E 011°36'10 9.6
2015-May-20 08:33N 57°31' E 011°38'9 8.7
2015-May-20 07:33N 57°39' E 011°44'8 8.3
2015-May-20 06:33N 57°43' E 011°58'5 5.4
2015-May-20 05:33N 57°48' E 012°01'7 7.0
2015-May-20 04:33N 57°55' E 012°03'8 8.4
2015-May-20 03:33N 58°03' E 012°09'6 5.7
2015-May-20 02:33N 58°08' E 012°07'8 8.4
2015-May-20 01:33N 58°16' E 012°15'1 0.6
2015-May-20 00:33N 58°16' E 012°16'5 5.3
2015-May-19 23:33N 58°20' E 012°21'4 4.4
2015-May-19 22:33N 58°25' E 012°20'9 9.4
2015-May-19 21:33N 58°31' E 012°33'  
2015-May-17 17:30N 58°35' E 012°39'9 9.2
2015-May-17 16:33N 58°28' E 012°28'8 7.9
2015-May-17 15:33N 58°22' E 012°19'4 3.7
2015-May-17 14:34N 58°18' E 012°18'3 2.8
2015-May-17 13:33N 58°16' E 012°15'1 1.5
2015-May-17 12:33N 58°15' E 012°13'7 7.3
2015-May-17 11:33N 58°08' E 012°07'4 4.0
2015-May-17 10:32N 58°04' E 012°09'7 7.2
2015-May-17 09:33N 57°57' E 012°06'7 7.3
2015-May-17 08:34N 57°51' E 012°01'6 6.2
2015-May-17 07:33N 57°44' E 012°00'6 6.2
2015-May-17 06:33N 57°41' E 011°50'7 7.3
2015-May-17 05:33N 57°36' E 011°40'6 6.4
2015-May-17 04:33N 57°30' E 011°39'6 5.8
2015-May-17 03:33N 57°24' E 011°41'6 5.8
2015-May-17 02:33N 57°18' E 011°43'7 6.4
2015-May-17 01:31N 57°12' E 011°45'6 6.2
2015-May-17 00:33N 57°06' E 011°48'7 6.6
2015-May-16 23:32N 56°59' E 011°50'6 6.3
2015-May-16 22:33N 56°53' E 011°52'6 6.1
2015-May-16 21:33N 56°47' E 011°54'6 6.0
2015-May-16 20:33N 56°41' E 011°52'8 7.4
2015-May-16 19:29N 56°35' E 011°44'126 8.4
2015-May-16 04:33N 54°35' E 010°38'9 9.2
2015-May-16 03:33N 54°31' E 010°24'9 9.0
2015-May-16 02:33N 54°24' E 010°13'3 3.4
2015-May-16 01:33N 54°22' E 010°08'7 7.2
2015-May-16 00:33N 54°20' E 009°56'17 7.1
2015-May-15 22:07N 54°11' E 009°31'7 7.1
2015-May-15 21:04N 54°08' E 009°20'4 8.1
2015-May-15 20:33N 54°04' E 009°19'8 7.9
2015-May-15 19:33N 53°56' E 009°13'2 2.2
2015-May-15 18:33N 53°55' E 009°11'0 0.0
2015-May-15 17:33N 53°55' E 009°11'1 1.3
2015-May-15 16:31N 53°54' E 009°09'0 0.0
2015-May-15 15:31N 53°54' E 009°09'0 0.0
2015-May-15 14:31N 53°54' E 009°09'0 0.0
2015-May-15 13:31N 53°54' E 009°09'0 0.0
2015-May-15 12:31N 53°54' E 009°09'0 0.0
2015-May-15 11:31N 53°54' E 009°09'0 0.0
2015-May-15 10:31N 53°54' E 009°09'0 0.0
2015-May-15 09:31N 53°54' E 009°09'0 0.0
2015-May-15 08:31N 53°54' E 009°09'0 0.0
2015-May-15 07:31N 53°54' E 009°09'0 0.0
2015-May-15 06:31N 53°54' E 009°09'0 0.0
2015-May-15 05:31N 53°54' E 009°09'0 0.0
2015-May-15 04:31N 53°54' E 009°09'0 0.0
2015-May-15 03:31N 53°54' E 009°09'0 0.0
2015-May-15 02:31N 53°54' E 009°09'0 0.0
2015-May-15 01:28N 53°54' E 009°09'0 0.0
2015-May-15 00:28N 53°54' E 009°09'0 0.0
2015-May-14 23:31N 53°54' E 009°09'0 0.0
2015-May-14 22:31N 53°54' E 009°09'0 0.0
2015-May-14 21:28N 53°54' E 009°09'0 0.0
2015-May-14 20:31N 53°54' E 009°09'0 0.0
2015-May-14 19:31N 53°54' E 009°09'0 0.0
2015-May-14 18:31N 53°54' E 009°09'0 0.0
2015-May-14 17:31N 53°54' E 009°09'0 0.0
2015-May-14 16:31N 53°54' E 009°09'0 0.0
2015-May-14 15:31N 53°54' E 009°09'0 0.0
2015-May-14 14:28N 53°54' E 009°09'0 0.0
2015-May-14 13:31N 53°54' E 009°09'0 0.0
2015-May-14 12:31N 53°54' E 009°09'0 0.0
2015-May-14 11:31N 53°54' E 009°09'0 0.0
2015-May-14 10:31N 53°54' E 009°09'0 0.0
2015-May-14 09:31N 53°54' E 009°09'0 0.0
2015-May-14 08:31N 53°54' E 009°09'0 0.0
2015-May-14 07:31N 53°54' E 009°09'0 0.0
2015-May-14 06:31N 53°54' E 009°09'0 0.0
2015-May-14 05:31N 53°54' E 009°09'0 0.0
2015-May-14 04:31N 53°54' E 009°09'0 0.0
2015-May-14 03:31N 53°54' E 009°09'0 0.0
2015-May-14 02:31N 53°54' E 009°09'0 0.0
2015-May-14 01:31N 53°54' E 009°09'0 0.0
2015-May-14 00:31N 53°54' E 009°09'0 0.0
2015-May-13 23:31N 53°54' E 009°09'0 0.0
2015-May-13 22:31N 53°54' E 009°09'0 0.0
2015-May-13 21:31N 53°54' E 009°09'0 0.0
2015-May-13 20:31N 53°54' E 009°09'0 0.0
2015-May-13 19:31N 53°54' E 009°09'0 0.0
2015-May-13 18:31N 53°54' E 009°09'0 0.0
2015-May-13 17:28N 53°54' E 009°09'0 0.0
2015-May-13 16:31N 53°54' E 009°09'0 0.0
2015-May-13 15:31N 53°54' E 009°09'0 0.0
2015-May-13 14:31N 53°54' E 009°09'  
Track history (hours):
 
Tides and Currents Weather Stations Pressure Air Temp Water Temp Dewpoint Dewpoint Depression Visibility Wind Speed Wind Dir Waves Ship Positions

Ida

Last reported at 2015-May-23 13:32 UTC. Time now 2015-May-25 17:21 UTC.
Position N 55°08' E 012°44'.

Length 82 m; draft 3.8 m.

Type: Cargo ship. MMSI: 210319000.

Date/timePositionNaut miles runAvg speedWind from/ knotsBaromVisibWave heightAir tempDewpointWater temp
2015-May-23 13:32N 55°08' E 012°44'6 6.3
2015-May-23 12:33N 55°14' E 012°38'7 6.6
2015-May-23 11:33N 55°20' E 012°39'7 6.6
2015-May-23 10:33N 55°27' E 012°40'8 7.9
2015-May-23 09:33N 55°34' E 012°42'1110.7
2015-May-23 08:33N 55°45' E 012°41'10 9.7
2015-May-23 07:33N 55°55' E 012°38'9 9.2
2015-May-23 06:33N 56°04' E 012°37'10 9.8
2015-May-23 05:33N 56°10' E 012°23'9 8.7
2015-May-23 04:33N 56°11' E 012°07'61 8.6
2015-May-22 21:33N 56°09' E 010°18'3 0.9
2015-May-22 18:14N 56°09' E 010°13'0 0.0
2015-May-22 17:26N 56°09' E 010°13'0 0.0
2015-May-22 13:20N 56°09' E 010°13'0 0.0
2015-May-22 11:23N 56°09' E 010°13'0 0.0
2015-May-22 07:29N 56°09' E 010°13'0 0.0
2015-May-22 06:26N 56°09' E 010°13'0 0.0
2015-May-22 05:32N 56°09' E 010°13'0 0.0
2015-May-20 23:33N 56°09' E 010°13'4 4.5
2015-May-20 22:33N 56°08' E 010°21'63 6.1
2015-May-20 12:15N 56°58' E 011°29'15 8.7
2015-May-20 10:33N 57°12' E 011°34'9 9.3
2015-May-20 09:33N 57°22' E 011°36'10 9.6
2015-May-20 08:33N 57°31' E 011°38'9 8.7
2015-May-20 07:33N 57°39' E 011°44'8 8.3
2015-May-20 06:33N 57°43' E 011°58'5 5.4
2015-May-20 05:33N 57°48' E 012°01'7 7.0
2015-May-20 04:33N 57°55' E 012°03'8 8.4
2015-May-20 03:33N 58°03' E 012°09'6 5.7
2015-May-20 02:33N 58°08' E 012°07'8 8.4
2015-May-20 01:33N 58°16' E 012°15'1 0.6
2015-May-20 00:33N 58°16' E 012°16'5 5.3
2015-May-19 23:33N 58°20' E 012°21'4 4.4
2015-May-19 22:33N 58°25' E 012°20'9 9.4
2015-May-19 21:33N 58°31' E 012°33'  
2015-May-17 17:30N 58°35' E 012°39'9 9.2
2015-May-17 16:33N 58°28' E 012°28'8 7.9
2015-May-17 15:33N 58°22' E 012°19'4 3.7
2015-May-17 14:34N 58°18' E 012°18'3 2.8
2015-May-17 13:33N 58°16' E 012°15'1 1.5
2015-May-17 12:33N 58°15' E 012°13'7 7.3
2015-May-17 11:33N 58°08' E 012°07'4 4.0
2015-May-17 10:32N 58°04' E 012°09'7 7.2
2015-May-17 09:33N 57°57' E 012°06'7 7.3
2015-May-17 08:34N 57°51' E 012°01'6 6.2
2015-May-17 07:33N 57°44' E 012°00'6 6.2
2015-May-17 06:33N 57°41' E 011°50'7 7.3
2015-May-17 05:33N 57°36' E 011°40'6 6.4
2015-May-17 04:33N 57°30' E 011°39'6 5.8
2015-May-17 03:33N 57°24' E 011°41'6 5.8
2015-May-17 02:33N 57°18' E 011°43'7 6.4
2015-May-17 01:31N 57°12' E 011°45'6 6.2
2015-May-17 00:33N 57°06' E 011°48'7 6.6
2015-May-16 23:32N 56°59' E 011°50'6 6.3
2015-May-16 22:33N 56°53' E 011°52'6 6.1
2015-May-16 21:33N 56°47' E 011°54'6 6.0
2015-May-16 20:33N 56°41' E 011°52'8 7.4
2015-May-16 19:29N 56°35' E 011°44'126 8.4
2015-May-16 04:33N 54°35' E 010°38'9 9.2
2015-May-16 03:33N 54°31' E 010°24'9 9.0
2015-May-16 02:33N 54°24' E 010°13'3 3.4
2015-May-16 01:33N 54°22' E 010°08'7 7.2
2015-May-16 00:33N 54°20' E 009°56'17 7.1
2015-May-15 22:07N 54°11' E 009°31'7 7.1
2015-May-15 21:04N 54°08' E 009°20'4 8.1
2015-May-15 20:33N 54°04' E 009°19'8 7.9
2015-May-15 19:33N 53°56' E 009°13'2 2.2
2015-May-15 18:33N 53°55' E 009°11'0 0.0
2015-May-15 17:33N 53°55' E 009°11'1 1.3
2015-May-15 16:31N 53°54' E 009°09'0 0.0
2015-May-15 15:31N 53°54' E 009°09'0 0.0
2015-May-15 14:31N 53°54' E 009°09'0 0.0
2015-May-15 13:31N 53°54' E 009°09'0 0.0
2015-May-15 12:31N 53°54' E 009°09'0 0.0
2015-May-15 11:31N 53°54' E 009°09'0 0.0
2015-May-15 10:31N 53°54' E 009°09'0 0.0
2015-May-15 09:31N 53°54' E 009°09'0 0.0
2015-May-15 08:31N 53°54' E 009°09'0 0.0
2015-May-15 07:31N 53°54' E 009°09'0 0.0
2015-May-15 06:31N 53°54' E 009°09'0 0.0
2015-May-15 05:31N 53°54' E 009°09'0 0.0
2015-May-15 04:31N 53°54' E 009°09'0 0.0
2015-May-15 03:31N 53°54' E 009°09'0 0.0
2015-May-15 02:31N 53°54' E 009°09'0 0.0
2015-May-15 01:28N 53°54' E 009°09'0 0.0
2015-May-15 00:28N 53°54' E 009°09'0 0.0
2015-May-14 23:31N 53°54' E 009°09'0 0.0
2015-May-14 22:31N 53°54' E 009°09'0 0.0
2015-May-14 21:28N 53°54' E 009°09'0 0.0
2015-May-14 20:31N 53°54' E 009°09'0 0.0
2015-May-14 19:31N 53°54' E 009°09'0 0.0
2015-May-14 18:31N 53°54' E 009°09'0 0.0
2015-May-14 17:31N 53°54' E 009°09'0 0.0
2015-May-14 16:31N 53°54' E 009°09'0 0.0
2015-May-14 15:31N 53°54' E 009°09'0 0.0
2015-May-14 14:28N 53°54' E 009°09'0 0.0
2015-May-14 13:31N 53°54' E 009°09'0 0.0
2015-May-14 12:31N 53°54' E 009°09'0 0.0
2015-May-14 11:31N 53°54' E 009°09'0 0.0
2015-May-14 10:31N 53°54' E 009°09'0 0.0
2015-May-14 09:31N 53°54' E 009°09'0 0.0
2015-May-14 08:31N 53°54' E 009°09'0 0.0
2015-May-14 07:31N 53°54' E 009°09'0 0.0
2015-May-14 06:31N 53°54' E 009°09'0 0.0
2015-May-14 05:31N 53°54' E 009°09'0 0.0
2015-May-14 04:31N 53°54' E 009°09'0 0.0
2015-May-14 03:31N 53°54' E 009°09'0 0.0
2015-May-14 02:31N 53°54' E 009°09'0 0.0
2015-May-14 01:31N 53°54' E 009°09'0 0.0
2015-May-14 00:31N 53°54' E 009°09'0 0.0
2015-May-13 23:31N 53°54' E 009°09'0 0.0
2015-May-13 22:31N 53°54' E 009°09'0 0.0
2015-May-13 21:31N 53°54' E 009°09'0 0.0
2015-May-13 20:31N 53°54' E 009°09'0 0.0
2015-May-13 19:31N 53°54' E 009°09'0 0.0
2015-May-13 18:31N 53°54' E 009°09'0 0.0
2015-May-13 17:28N 53°54' E 009°09'0 0.0
2015-May-13 16:31N 53°54' E 009°09'0 0.0
2015-May-13 15:31N 53°54' E 009°09'0 0.0
2015-May-13 14:31N 53°54' E 009°09'  

Dump ship's entire track history